Time;durP1;ratioP1;P1;durP2;ratioP2;P2;SDS_P1;SDS_P2;PMS_P1;PMS_P2;Temp;Humidity;BMP_temperature;BMP_pressure;BME280_temperature;BME280_humidity;BME280_pressure;Samples;Min_cycle;Max_cycle;Signal;HPM_P1;HPM_P2
2022/01/29 00:01:32;;;;;;;13.20;5.53;;;;;;;;;;6190417;23;20005;-93
2022/01/29 00:03:58;;;;;;;18.80;6.00;;;;;;;;;;6195758;23;20078;-92
2022/01/29 00:06:24;;;;;;;14.57;4.93;;;;;;;;;;6222143;23;20039;-92
2022/01/29 00:08:52;;;;;;;15.25;6.32;;;;;;;;;;6221955;23;20005;-93
2022/01/29 00:11:19;;;;;;;13.55;4.57;;;;;;;;;;6222060;23;20009;-92
2022/01/29 00:13:45;;;;;;;11.68;4.28;;;;;;;;;;6195027;23;20005;-93
2022/01/29 00:16:13;;;;;;;13.18;4.57;;;;;;;;;;6222032;23;19997;-93
2022/01/29 00:18:57;;;;;;;12.07;5.10;;;;;;;;;;6221456;23;20374;-93
2022/01/29 00:21:23;;;;;;;11.38;4.30;;;;;;;;;;6221648;23;20032;-94
2022/01/29 00:23:49;;;;;;;13.40;4.55;;;;;;;;;;6195039;23;20371;-94
2022/01/29 00:26:20;;;;;;;16.30;4.82;;;;;;;;;;6221479;23;20005;-93
2022/01/29 00:28:46;;;;;;;12.07;4.20;;;;;;;;;;6221418;23;20061;-93
2022/01/29 00:31:12;;;;;;;13.43;4.53;;;;;;;;;;6194610;23;20455;-93
2022/01/29 00:33:38;;;;;;;11.70;4.05;;;;;;;;;;6195308;23;20416;-93
2022/01/29 00:36:04;;;;;;;11.25;4.03;;;;;;;;;;6195068;23;20027;-93
2022/01/29 00:38:31;;;;;;;13.00;4.25;;;;;;;;;;6194960;23;20000;-95
2022/01/29 00:40:57;;;;;;;13.50;4.32;;;;;;;;;;6221538;23;20024;-93
2022/01/29 00:43:23;;;;;;;13.43;3.97;;;;;;;;;;6221219;23;20371;-93
2022/01/29 00:45:49;;;;;;;15.38;4.57;;;;;;;;;;6221266;23;20051;-93
2022/01/29 00:51:19;;;;;;;11.88;4.35;;;;;;;;;;6221074;23;20019;-93
2022/01/29 00:53:45;;;;;;;13.55;3.92;;;;;;;;;;6221635;23;20001;-93
2022/01/29 00:56:11;;;;;;;8.88;3.50;;;;;;;;;;6221668;23;20079;-94
2022/01/29 00:58:37;;;;;;;9.88;3.00;;;;;;;;;;6194378;23;20031;-94
2022/01/29 01:01:03;;;;;;;8.45;3.38;;;;;;;;;;6221149;23;20051;-93
2022/01/29 01:06:33;;;;;;;8.75;3.30;;;;;;;;;;6217356;23;20055;-93
2022/01/29 01:09:00;;;;;;;9.23;3.35;;;;;;;;;;6221387;23;20113;-92
2022/01/29 01:11:26;;;;;;;10.43;4.13;;;;;;;;;;6220943;23;20001;-92
2022/01/29 01:13:52;;;;;;;10.85;3.45;;;;;;;;;;6221231;23;19996;-94
2022/01/29 01:16:18;;;;;;;10.70;3.60;;;;;;;;;;6221167;23;20355;-93
2022/01/29 01:18:44;;;;;;;9.23;3.35;;;;;;;;;;6220967;23;20426;-92
2022/01/29 01:21:10;;;;;;;13.13;4.30;;;;;;;;;;6194938;23;20058;-92
2022/01/29 01:23:36;;;;;;;13.63;3.58;;;;;;;;;;6220739;23;20084;-89
2022/01/29 01:26:03;;;;;;;8.15;3.25;;;;;;;;;;6220837;23;20000;-91
2022/01/29 01:28:29;;;;;;;12.98;3.63;;;;;;;;;;6221150;23;20051;-92
2022/01/29 01:30:55;;;;;;;10.70;3.10;;;;;;;;;;6194907;23;20039;-92
2022/01/29 01:33:21;;;;;;;8.50;3.20;;;;;;;;;;6221390;23;20291;-92
2022/01/29 01:35:52;;;;;;;11.43;3.60;;;;;;;;;;6221469;23;20307;-93
2022/01/29 01:38:23;;;;;;;12.48;3.20;;;;;;;;;;6194659;23;20008;-92
2022/01/29 01:40:54;;;;;;;11.25;3.63;;;;;;;;;;6221396;23;20032;-92
2022/01/29 01:43:20;;;;;;;10.45;3.72;;;;;;;;;;6220837;23;20028;-92
2022/01/29 01:45:47;;;;;;;8.20;3.35;;;;;;;;;;6194841;23;20272;-93
2022/01/29 01:54:21;;;;;;;11.48;3.13;;;;;;;;;;6220944;23;20263;-93
2022/01/29 01:56:47;;;;;;;11.73;3.20;;;;;;;;;;6221349;23;20008;-94
2022/01/29 01:59:13;;;;;;;12.27;3.25;;;;;;;;;;6194177;23;20260;-92
2022/01/29 02:01:39;;;;;;;14.32;3.03;;;;;;;;;;6221079;23;20011;-93
2022/01/29 02:04:05;;;;;;;11.32;3.72;;;;;;;;;;6196803;23;20011;-92
2022/01/29 02:06:31;;;;;;;11.00;3.72;;;;;;;;;;6195981;23;20009;-91
2022/01/29 02:09:00;;;;;;;13.52;4.10;;;;;;;;;;6195935;23;20417;-92
2022/01/29 02:11:26;;;;;;;12.65;4.93;;;;;;;;;;6223250;23;20004;-92
2022/01/29 02:13:54;;;;;;;15.85;4.93;;;;;;;;;;6222960;23;20001;-92
2022/01/29 02:16:20;;;;;;;14.98;5.60;;;;;;;;;;6223199;23;20004;-92
2022/01/29 02:18:46;;;;;;;15.02;4.55;;;;;;;;;;6223322;23;20004;-92
2022/01/29 02:21:12;;;;;;;13.02;3.75;;;;;;;;;;6196379;23;20016;-92
2022/01/29 02:23:38;;;;;;;13.68;4.00;;;;;;;;;;6196455;23;20012;-92
2022/01/29 02:26:04;;;;;;;14.38;4.00;;;;;;;;;;6223029;23;20252;-92
2022/01/29 02:28:30;;;;;;;12.00;3.78;;;;;;;;;;6222715;23;20364;-92
2022/01/29 02:31:03;;;;;;;11.32;3.80;;;;;;;;;;6222562;23;20008;-92
2022/01/29 02:33:29;;;;;;;;;;;;;;;;;;6196461;23;20028;-92
2022/01/29 02:35:56;;;;;;;17.17;3.65;;;;;;;;;;6222551;23;20289;-91
2022/01/29 02:38:23;;;;;;;18.52;5.30;;;;;;;;;;6222418;23;20001;-92
2022/01/29 02:40:54;;;;;;;13.35;3.88;;;;;;;;;;6222525;23;20012;-91
2022/01/29 02:43:33;;;;;;;14.13;3.60;;;;;;;;;;6222701;23;20000;-92
2022/01/29 02:46:19;;;;;;;12.23;3.38;;;;;;;;;;6222427;23;20015;-92
2022/01/29 02:48:46;;;;;;;11.93;3.55;;;;;;;;;;6222966;23;20012;-92
2022/01/29 02:51:12;;;;;;;12.20;3.30;;;;;;;;;;6222761;23;20036;-93
2022/01/29 02:53:38;;;;;;;14.15;3.70;;;;;;;;;;6222912;23;19997;-92
2022/01/29 02:56:05;;;;;;;14.07;3.58;;;;;;;;;;6222465;23;19997;-93
2022/01/29 02:58:31;;;;;;;14.18;3.45;;;;;;;;;;6196187;23;20024;-92
2022/01/29 03:00:58;;;;;;;11.38;3.40;;;;;;;;;;6196063;23;20375;-94
2022/01/29 03:03:24;;;;;;;15.88;3.45;;;;;;;;;;6222374;23;20092;-93
2022/01/29 03:05:51;;;;;;;9.77;2.67;;;;;;;;;;6222581;23;20167;-94
2022/01/29 03:08:17;;;;;;;12.57;2.85;;;;;;;;;;6222014;23;20099;-93
2022/01/29 03:10:43;;;;;;;15.05;3.22;;;;;;;;;;6222526;23;20028;-93
2022/01/29 03:13:10;;;;;;;10.40;2.70;;;;;;;;;;6221676;23;20004;-92
2022/01/29 03:15:36;;;;;;;13.05;2.80;;;;;;;;;;6222234;23;19993;-94
2022/01/29 03:18:02;;;;;;;10.52;3.13;;;;;;;;;;6222610;23;20003;-94
2022/01/29 03:20:30;;;;;;;11.02;2.63;;;;;;;;;;6222190;23;20079;-93
2022/01/29 03:22:56;;;;;;;10.15;2.80;;;;;;;;;;6222445;23;20015;-93
2022/01/29 03:25:22;;;;;;;12.95;3.25;;;;;;;;;;6221712;23;20078;-93
2022/01/29 03:27:48;;;;;;;9.80;2.80;;;;;;;;;;6222363;23;20076;-92
2022/01/29 03:30:14;;;;;;;10.02;2.67;;;;;;;;;;6195655;23;20103;-92
2022/01/29 03:32:40;;;;;;;10.02;2.70;;;;;;;;;;6222333;23;19997;-91
2022/01/29 03:35:07;;;;;;;9.05;2.70;;;;;;;;;;6195668;23;20000;-94
2022/01/29 03:37:33;;;;;;;11.52;2.83;;;;;;;;;;6222069;23;20009;-92
2022/01/29 03:40:02;;;;;;;11.55;3.33;;;;;;;;;;6222381;23;20009;-93
2022/01/29 03:42:31;;;;;;;7.40;2.38;;;;;;;;;;6195893;23;20011;-94
2022/01/29 03:44:58;;;;;;;8.48;2.38;;;;;;;;;;6195615;23;20040;-93
2022/01/29 03:47:24;;;;;;;12.95;2.50;;;;;;;;;;6222292;23;20303;-93
2022/01/29 03:49:50;;;;;;;8.35;2.63;;;;;;;;;;6221898;23;20011;-94
2022/01/29 03:52:17;;;;;;;9.27;2.40;;;;;;;;;;6195597;23;20351;-93
2022/01/29 03:54:43;;;;;;;8.80;2.95;;;;;;;;;;6195731;23;20001;-93
2022/01/29 03:57:09;;;;;;;6.47;2.30;;;;;;;;;;6221846;23;20001;-93
2022/01/29 03:59:36;;;;;;;12.88;2.60;;;;;;;;;;6195638;23;20021;-93
2022/01/29 04:02:02;;;;;;;9.52;2.72;;;;;;;;;;6222234;23;20011;-93
2022/01/29 04:04:28;;;;;;;9.10;2.30;;;;;;;;;;6195449;23;20292;-93
2022/01/29 04:06:59;;;;;;;9.10;2.28;;;;;;;;;;6221764;23;20387;-94
2022/01/29 04:09:25;;;;;;;8.43;2.10;;;;;;;;;;6195394;23;20047;-93
2022/01/29 04:11:51;;;;;;;10.15;2.63;;;;;;;;;;6221673;23;20001;-94
2022/01/29 04:14:19;;;;;;;8.77;2.30;;;;;;;;;;6221531;23;19996;-92
2022/01/29 04:16:46;;;;;;;8.80;2.67;;;;;;;;;;6221468;23;20028;-94
2022/01/29 04:25:28;;;;;;;13.85;2.70;;;;;;;;;;6221247;23;20353;-95
2022/01/29 04:27:54;;;;;;;7.97;2.60;;;;;;;;;;6194715;23;20700;-95
2022/01/29 04:30:29;;;;;;;7.18;2.60;;;;;;;;;;6194702;23;20016;-93
2022/01/29 04:33:02;;;;;;;8.15;2.15;;;;;;;;;;6194856;23;20004;-93
2022/01/29 04:35:29;;;;;;;6.72;1.75;;;;;;;;;;6195283;23;20031;-93
2022/01/29 04:37:55;;;;;;;9.05;2.25;;;;;;;;;;6195419;23;20363;-93
2022/01/29 04:40:22;;;;;;;8.68;2.42;;;;;;;;;;6221524;23;20004;-94
2022/01/29 04:42:48;;;;;;;8.73;2.17;;;;;;;;;;6195415;23;20347;-94
2022/01/29 04:45:14;;;;;;;7.32;2.22;;;;;;;;;;6221327;23;20016;-92
2022/01/29 04:47:40;;;;;;;5.97;2.38;;;;;;;;;;6221371;23;20008;-93
2022/01/29 04:50:07;;;;;;;9.38;3.03;;;;;;;;;;6221652;23;20004;-93
2022/01/29 04:52:33;;;;;;;5.90;2.22;;;;;;;;;;6221383;23;19996;-93
2022/01/29 04:54:59;;;;;;;6.88;2.40;;;;;;;;;;6221587;23;19996;-91
2022/01/29 04:57:25;;;;;;;4.85;2.05;;;;;;;;;;6194899;23;20008;-94
2022/01/29 04:59:51;;;;;;;8.73;2.03;;;;;;;;;;6221263;23;20216;-94
2022/01/29 05:02:17;;;;;;;6.82;2.15;;;;;;;;;;6221587;23;20264;-93
2022/01/29 05:04:43;;;;;;;9.00;2.50;;;;;;;;;;6194552;23;20316;-92
2022/01/29 05:07:09;;;;;;;11.75;5.10;;;;;;;;;;6221064;23;20031;-92
2022/01/29 05:09:36;;;;;;;9.55;3.03;;;;;;;;;;6221251;23;20059;-92
2022/01/29 05:12:03;;;;;;;8.13;2.97;;;;;;;;;;6221299;23;20024;-91
2022/01/29 05:14:39;;;;;;;4.68;2.45;;;;;;;;;;6220888;23;20001;-91
2022/01/29 05:28:13;;;;;;;6.95;2.10;;;;;;;;;;6221325;23;20043;-93
2022/01/29 05:30:39;;;;;;;10.35;4.00;;;;;;;;;;6220817;23;20017;-93
2022/01/29 05:33:05;;;;;;;16.35;6.20;;;;;;;;;;6194765;23;20004;-91
2022/01/29 05:35:31;;;;;;;8.57;3.97;;;;;;;;;;6221061;23;20059;-91
2022/01/29 05:37:57;;;;;;;8.38;3.38;;;;;;;;;;6220940;23;20001;-92
2022/01/29 05:40:23;;;;;;;8.35;3.50;;;;;;;;;;6221104;23;19997;-90
2022/01/29 05:42:49;;;;;;;5.50;2.92;;;;;;;;;;6221094;23;20005;-90
2022/01/29 05:45:15;;;;;;;7.70;3.15;;;;;;;;;;6220891;23;20000;-92
2022/01/29 05:47:41;;;;;;;7.60;2.80;;;;;;;;;;6221062;23;20050;-92
2022/01/29 05:50:08;;;;;;;5.50;3.05;;;;;;;;;;6221169;23;20255;-93
2022/01/29 05:52:34;;;;;;;5.85;3.22;;;;;;;;;;6220970;23;20027;-92
2022/01/29 05:55:00;;;;;;;7.85;2.58;;;;;;;;;;6221127;23;20295;-92
2022/01/29 05:57:27;;;;;;;6.85;2.83;;;;;;;;;;6220962;23;20279;-92
2022/01/29 05:59:53;;;;;;;6.60;2.00;;;;;;;;;;6220573;23;20019;-93
2022/01/29 06:02:19;;;;;;;6.18;2.55;;;;;;;;;;6194192;23;20004;-91
2022/01/29 06:08:08;;;;;;;12.75;4.07;;;;;;;;;;6217975;23;20045;-92
2022/01/29 06:10:34;;;;;;;7.45;2.75;;;;;;;;;;6191073;23;20009;-91
2022/01/29 06:13:00;;;;;;;6.72;2.63;;;;;;;;;;6190902;23;20351;-91
2022/01/29 06:15:26;;;;;;;6.45;2.40;;;;;;;;;;6190657;23;20278;-90
2022/01/29 06:17:52;;;;;;;7.57;2.53;;;;;;;;;;6190393;23;20384;-93
2022/01/29 06:23:29;;;;;;;10.13;2.72;;;;;;;;;;6190685;23;20028;-93
2022/01/29 06:25:55;;;;;;;7.28;3.10;;;;;;;;;;6190420;23;20004;-92
2022/01/29 06:28:21;;;;;;;12.10;3.85;;;;;;;;;;6163981;23;20091;-92
2022/01/29 06:30:47;;;;;;;7.82;2.90;;;;;;;;;;6190563;23;20001;-91
2022/01/29 06:33:14;;;;;;;12.27;3.72;;;;;;;;;;6190645;23;20360;-90
2022/01/29 06:35:41;;;;;;;7.95;3.00;;;;;;;;;;6190934;23;20001;-90
2022/01/29 06:38:07;;;;;;;8.07;3.17;;;;;;;;;;6189602;23;20399;-91
2022/01/29 06:40:34;;;;;;;11.27;4.30;;;;;;;;;;6190833;23;20013;-91
2022/01/29 06:43:01;;;;;;;7.53;3.70;;;;;;;;;;6190538;23;20028;-91
2022/01/29 06:45:28;;;;;;;14.15;5.72;;;;;;;;;;6190569;23;20009;-91
2022/01/29 06:47:54;;;;;;;11.13;4.95;;;;;;;;;;6189787;23;20013;-91
2022/01/29 06:50:20;;;;;;;9.60;3.95;;;;;;;;;;6192454;23;20001;-91
2022/01/29 06:52:46;;;;;;;6.93;3.30;;;;;;;;;;6192497;23;20000;-91
2022/01/29 06:55:12;;;;;;;8.10;3.40;;;;;;;;;;6192681;23;20027;-90
2022/01/29 06:57:38;;;;;;;6.35;3.22;;;;;;;;;;6192592;23;20000;-93
2022/01/29 07:00:07;;;;;;;9.18;3.08;;;;;;;;;;6191188;23;20013;-93
2022/01/29 07:02:34;;;;;;;6.95;2.65;;;;;;;;;;6190870;23;20009;-92
2022/01/29 07:05:00;;;;;;;7.53;3.00;;;;;;;;;;6190485;23;20027;-92
2022/01/29 07:07:26;;;;;;;7.18;2.63;;;;;;;;;;6165235;23;20356;-91
2022/01/29 07:09:52;;;;;;;8.35;3.20;;;;;;;;;;6213698;23;20012;-93
2022/01/29 07:12:19;;;;;;;6.38;3.22;;;;;;;;;;6196130;23;20400;-92
2022/01/29 07:14:48;;;;;;;9.98;3.10;;;;;;;;;;6195415;23;20005;-92
2022/01/29 07:17:16;;;;;;;8.68;3.88;;;;;;;;;;6195380;23;20008;-93
2022/01/29 07:19:43;;;;;;;9.02;2.88;;;;;;;;;;6222398;23;20001;-92
2022/01/29 07:22:09;;;;;;;14.63;4.90;;;;;;;;;;6221666;23;20296;-94
2022/01/29 07:24:35;;;;;;;8.07;3.78;;;;;;;;;;6196007;23;20012;-91
2022/01/29 07:27:02;;;;;;;7.38;4.00;;;;;;;;;;6222142;23;20001;-91
2022/01/29 07:29:28;;;;;;;11.13;6.35;;;;;;;;;;6221962;23;20004;-92
2022/01/29 07:31:56;;;;;;;14.98;10.30;;;;;;;;;;6222262;23;20363;-91
2022/01/29 07:34:22;;;;;;;11.52;7.00;;;;;;;;;;6221812;23;20071;-89
2022/01/29 07:36:48;;;;;;;8.85;4.22;;;;;;;;;;6222583;23;20000;-93
2022/01/29 07:39:14;;;;;;;12.52;5.05;;;;;;;;;;6221909;23;20055;-93
2022/01/29 07:41:40;;;;;;;12.70;5.82;;;;;;;;;;6221717;23;20001;-93
2022/01/29 07:44:06;;;;;;;10.80;5.15;;;;;;;;;;6195407;23;20008;-91
2022/01/29 07:46:32;;;;;;;15.50;8.68;;;;;;;;;;6195720;23;20001;-91
2022/01/29 07:48:59;;;;;;;11.40;5.80;;;;;;;;;;6195611;23;20005;-93
2022/01/29 07:51:25;;;;;;;15.27;7.10;;;;;;;;;;6222228;23;20005;-92
2022/01/29 07:53:51;;;;;;;25.05;10.88;;;;;;;;;;6221985;23;20007;-91
2022/01/29 07:56:20;;;;;;;22.75;9.77;;;;;;;;;;6222192;23;20088;-91
2022/01/29 07:58:46;;;;;;;23.48;10.18;;;;;;;;;;6221737;23;20368;-91
2022/01/29 08:01:13;;;;;;;22.90;12.50;;;;;;;;;;6221414;23;20084;-93
2022/01/29 08:03:39;;;;;;;22.15;9.73;;;;;;;;;;6221705;23;20383;-91
2022/01/29 08:06:05;;;;;;;91.38;21.75;;;;;;;;;;6221974;23;20026;-92
2022/01/29 08:08:31;;;;;;;162.05;47.95;;;;;;;;;;6195237;23;20246;-93
2022/01/29 08:10:57;;;;;;;126.78;38.42;;;;;;;;;;6221770;23;20009;-91
2022/01/29 08:13:23;;;;;;;157.85;50.75;;;;;;;;;;6221560;23;20043;-91
2022/01/29 08:15:49;;;;;;;100.40;28.42;;;;;;;;;;6221255;23;20233;-91
2022/01/29 08:18:16;;;;;;;94.85;23.08;;;;;;;;;;6194592;23;20001;-92
2022/01/29 08:24:04;;;;;;;27.02;10.65;;;;;;;;;;6221156;23;20004;-91
2022/01/29 08:26:31;;;;;;;30.52;13.27;;;;;;;;;;6221563;23;20252;-93
2022/01/29 08:28:57;;;;;;;25.20;11.20;;;;;;;;;;6221641;23;20012;-96
2022/01/29 08:31:23;;;;;;;18.33;7.82;;;;;;;;;;6221200;23;20039;-93
2022/01/29 08:33:49;;;;;;;13.95;7.20;;;;;;;;;;6221548;23;19997;-95
2022/01/29 08:39:19;;;;;;;68.53;32.10;;;;;;;;;;6221138;23;20076;-93
2022/01/29 08:41:45;;;;;;;26.77;12.25;;;;;;;;;;6220921;23;19996;-91
2022/01/29 08:44:11;;;;;;;21.35;10.82;;;;;;;;;;6221195;23;20027;-91
2022/01/29 08:46:37;;;;;;;17.58;7.18;;;;;;;;;;6221539;23;20225;-92
2022/01/29 08:49:03;;;;;;;16.20;9.02;;;;;;;;;;6195235;23;20000;-93
2022/01/29 08:51:29;;;;;;;18.10;9.73;;;;;;;;;;6221438;23;20005;-93
2022/01/29 08:53:55;;;;;;;13.63;7.90;;;;;;;;;;6195068;23;19997;-92
2022/01/29 08:56:22;;;;;;;16.02;6.38;;;;;;;;;;6221444;23;19997;-91
2022/01/29 08:58:48;;;;;;;10.88;6.15;;;;;;;;;;6221356;23;20000;-92
2022/01/29 09:01:14;;;;;;;13.77;6.05;;;;;;;;;;6194695;23;20044;-92
2022/01/29 09:03:40;;;;;;;17.45;6.22;;;;;;;;;;6221634;23;20001;-91
2022/01/29 09:09:10;;;;;;;23.23;8.30;;;;;;;;;;6220822;23;20092;-89
2022/01/29 09:11:36;;;;;;;25.38;7.57;;;;;;;;;;6220731;23;20379;-90
2022/01/29 09:14:02;;;;;;;20.58;7.60;;;;;;;;;;6221455;23;20028;-92
2022/01/29 09:16:28;;;;;;;18.90;7.82;;;;;;;;;;6194981;23;20000;-91
2022/01/29 09:18:54;;;;;;;18.10;7.70;;;;;;;;;;6221308;23;20005;-92
2022/01/29 09:21:20;;;;;;;14.23;6.22;;;;;;;;;;6221594;23;20301;-91
2022/01/29 09:23:46;;;;;;;16.92;7.07;;;;;;;;;;6221400;23;20070;-91
2022/01/29 09:26:12;;;;;;;25.25;12.07;;;;;;;;;;6220827;23;20038;-91
2022/01/29 09:28:38;;;;;;;29.58;14.57;;;;;;;;;;6221471;23;20004;-91
2022/01/29 09:31:04;;;;;;;36.42;17.42;;;;;;;;;;6221419;23;20016;-91
2022/01/29 09:33:30;;;;;;;30.75;13.85;;;;;;;;;;6194798;23;20048;-91
2022/01/29 09:35:56;;;;;;;29.25;14.35;;;;;;;;;;6220855;23;20008;-92
2022/01/29 09:38:22;;;;;;;87.45;30.30;;;;;;;;;;6221329;23;20027;-91
2022/01/29 09:40:49;;;;;;;124.40;44.65;;;;;;;;;;6195243;23;20054;-91
2022/01/29 09:43:15;;;;;;;72.72;34.67;;;;;;;;;;6221336;23;20011;-91
2022/01/29 09:45:43;;;;;;;33.00;15.55;;;;;;;;;;6221270;23;20008;-91
2022/01/29 09:48:09;;;;;;;16.48;8.65;;;;;;;;;;6221469;23;20008;-91
2022/01/29 09:50:38;;;;;;;24.25;11.48;;;;;;;;;;6221091;23;20055;-92
2022/01/29 09:53:06;;;;;;;26.38;11.20;;;;;;;;;;6221000;23;20363;-91
2022/01/29 09:55:32;;;;;;;38.95;15.07;;;;;;;;;;6221240;23;20027;-91
2022/01/29 09:57:59;;;;;;;58.88;20.33;;;;;;;;;;6220497;23;20012;-91
2022/01/29 10:00:25;;;;;;;75.68;29.40;;;;;;;;;;6221277;23;20020;-91
2022/01/29 10:03:09;;;;;;;76.07;30.17;;;;;;;;;;6221306;23;20008;-91
2022/01/29 10:05:36;;;;;;;35.85;15.85;;;;;;;;;;6220829;23;20446;-91
2022/01/29 10:08:03;;;;;;;44.97;16.88;;;;;;;;;;6221246;23;20044;-92
2022/01/29 10:10:30;;;;;;;58.13;21.63;;;;;;;;;;6220414;23;20399;-91
2022/01/29 10:12:56;;;;;;;143.90;53.58;;;;;;;;;;6194694;23;20011;-91
2022/01/29 10:15:22;;;;;;;86.38;32.67;;;;;;;;;;6220733;23;19997;-91
2022/01/29 10:17:50;;;;;;;45.90;20.80;;;;;;;;;;6194603;23;20271;-91
2022/01/29 10:20:23;;;;;;;21.48;10.88;;;;;;;;;;6221232;23;20007;-90
2022/01/29 10:22:57;;;;;;;81.20;32.58;;;;;;;;;;6195466;23;20010;-91
2022/01/29 10:25:36;;;;;;;33.80;14.23;;;;;;;;;;6222360;23;20001;-86
2022/01/29 10:28:12;;;;;;;19.73;9.10;;;;;;;;;;6196339;23;20011;-92
2022/01/29 10:30:55;;;;;;;205.32;74.55;;;;;;;;;;6222925;23;20259;-91
2022/01/29 10:33:27;;;;;;;204.10;76.97;;;;;;;;;;6223100;23;20075;-90
2022/01/29 10:35:54;;;;;;;315.55;115.03;;;;;;;;;;6223108;23;20012;-90
2022/01/29 10:38:22;;;;;;;104.28;44.00;;;;;;;;;;6222689;23;19996;-91
2022/01/29 10:41:09;;;;;;;30.85;15.55;;;;;;;;;;6196308;23;20390;-89
2022/01/29 10:43:35;;;;;;;63.78;25.63;;;;;;;;;;6222224;23;20040;-89
2022/01/29 10:46:01;;;;;;;139.18;52.58;;;;;;;;;;6196103;23;20032;-90
2022/01/29 10:48:43;;;;;;;177.77;66.82;;;;;;;;;;6222398;23;20012;-90
2022/01/29 10:51:12;;;;;;;17.95;8.65;;;;;;;;;;6222524;23;20458;-90
2022/01/29 10:53:40;;;;;;;112.03;39.00;;;;;;;;;;6196282;23;20005;-90
2022/01/29 10:56:06;;;;;;;138.00;50.00;;;;;;;;;;6222558;23;20004;-91
2022/01/29 10:58:45;;;;;;;59.90;23.05;;;;;;;;;;6222480;23;20007;-90
2022/01/29 11:01:15;;;;;;;15.60;7.50;;;;;;;;;;6222866;23;20083;-91
2022/01/29 11:03:41;;;;;;;45.95;18.73;;;;;;;;;;6196533;23;20087;-90
2022/01/29 11:06:11;;;;;;;37.47;16.17;;;;;;;;;;6222327;23;20028;-90
2022/01/29 11:08:41;;;;;;;54.03;20.23;;;;;;;;;;6222495;23;20062;-90
2022/01/29 11:11:08;;;;;;;161.82;54.95;;;;;;;;;;6196121;23;20012;-90
2022/01/29 11:13:35;;;;;;;30.67;13.27;;;;;;;;;;6195826;23;20166;-91
2022/01/29 11:16:02;;;;;;;28.40;11.85;;;;;;;;;;6222611;23;19997;-90
2022/01/29 11:18:28;;;;;;;25.80;10.95;;;;;;;;;;6222555;23;20004;-90
2022/01/29 11:20:56;;;;;;;12.20;5.78;;;;;;;;;;6222465;23;20016;-90
2022/01/29 11:23:22;;;;;;;124.63;42.80;;;;;;;;;;6196082;23;20009;-90
2022/01/29 11:25:52;;;;;;;162.93;58.00;;;;;;;;;;6222659;23;20023;-89
2022/01/29 11:28:18;;;;;;;146.15;49.80;;;;;;;;;;6195946;23;20051;-87
2022/01/29 11:30:45;;;;;;;22.40;9.20;;;;;;;;;;6221606;23;20024;-89
2022/01/29 11:33:12;;;;;;;28.75;13.13;;;;;;;;;;6195305;23;20040;-88
2022/01/29 11:35:51;;;;;;;36.60;16.88;;;;;;;;;;6221563;23;20083;-89
2022/01/29 11:38:27;;;;;;;148.93;59.55;;;;;;;;;;6222310;23;19996;-88
2022/01/29 11:40:58;;;;;;;18.40;8.40;;;;;;;;;;6221730;23;20031;-88
2022/01/29 11:43:24;;;;;;;148.63;58.88;;;;;;;;;;6222139;23;20019;-88
2022/01/29 11:46:03;;;;;;;95.80;41.38;;;;;;;;;;6222403;23;20004;-87
2022/01/29 11:48:37;;;;;;;102.40;45.20;;;;;;;;;;6195791;23;20015;-89
2022/01/29 11:51:08;;;;;;;36.00;16.45;;;;;;;;;;6194822;23;20012;-87
2022/01/29 11:53:46;;;;;;;54.72;22.83;;;;;;;;;;6221713;23;20011;-87
2022/01/29 11:56:31;;;;;;;78.35;33.83;;;;;;;;;;6221891;23;20059;-87
2022/01/29 11:59:16;;;;;;;24.13;11.38;;;;;;;;;;6195691;23;20001;-87
2022/01/29 12:01:42;;;;;;;44.30;22.38;;;;;;;;;;6222174;23;20016;-87
2022/01/29 12:04:08;;;;;;;478.90;203.88;;;;;;;;;;6221419;23;20047;-87
2022/01/29 12:06:40;;;;;;;111.40;42.33;;;;;;;;;;6195683;23;20054;-86
2022/01/29 12:09:14;;;;;;;176.38;57.85;;;;;;;;;;6221352;23;20016;-87
2022/01/29 12:11:41;;;;;;;144.18;52.58;;;;;;;;;;6221879;23;20015;-88
2022/01/29 12:14:14;;;;;;;58.50;22.23;;;;;;;;;;6222049;23;20723;-88
2022/01/29 12:16:50;;;;;;;35.28;13.80;;;;;;;;;;6221785;23;20370;-88
2022/01/29 12:19:34;;;;;;;199.35;70.90;;;;;;;;;;6221553;23;19993;-88
2022/01/29 12:22:01;;;;;;;43.28;18.25;;;;;;;;;;6195445;23;20389;-87
2022/01/29 12:24:27;;;;;;;447.58;184.68;;;;;;;;;;6195485;23;20005;-87
2022/01/29 12:26:54;;;;;;;34.55;15.57;;;;;;;;;;6222027;23;20007;-87
2022/01/29 12:29:22;;;;;;;15.45;6.28;;;;;;;;;;6221386;23;20001;-87
2022/01/29 12:31:50;;;;;;;26.85;12.07;;;;;;;;;;6194580;23;20008;-87
2022/01/29 12:34:16;;;;;;;58.15;25.98;;;;;;;;;;6221670;23;19997;-88
2022/01/29 12:36:42;;;;;;;64.95;29.15;;;;;;;;;;6221792;23;20001;-88
2022/01/29 12:39:09;;;;;;;28.50;13.63;;;;;;;;;;6221770;23;20035;-87
2022/01/29 12:41:39;;;;;;;16.48;9.18;;;;;;;;;;6194901;23;20095;-88
2022/01/29 12:44:08;;;;;;;17.70;8.50;;;;;;;;;;6195110;23;20012;-87
2022/01/29 12:46:35;;;;;;;21.08;10.20;;;;;;;;;;6194600;23;20059;-88
2022/01/29 12:49:02;;;;;;;36.17;15.45;;;;;;;;;;6221634;23;20007;-87
2022/01/29 12:51:28;;;;;;;31.98;12.35;;;;;;;;;;6194981;23;20064;-87
2022/01/29 12:53:58;;;;;;;16.33;7.70;;;;;;;;;;6221165;23;20004;-88
2022/01/29 12:56:34;;;;;;;10.30;6.15;;;;;;;;;;6221678;23;20005;-87
2022/01/29 12:59:01;;;;;;;8.30;4.75;;;;;;;;;;6221555;23;20070;-87
2022/01/29 13:01:27;;;;;;;49.75;19.08;;;;;;;;;;6221793;23;20008;-88
2022/01/29 13:04:01;;;;;;;24.90;12.20;;;;;;;;;;6221070;23;20080;-87
2022/01/29 13:06:27;;;;;;;19.88;9.10;;;;;;;;;;6194608;23;20363;-87
2022/01/29 13:08:53;;;;;;;29.17;12.27;;;;;;;;;;6220905;23;20384;-88
2022/01/29 13:11:25;;;;;;;25.73;11.00;;;;;;;;;;6194530;23;20005;-88
2022/01/29 13:13:51;;;;;;;26.33;11.70;;;;;;;;;;6221282;23;19996;-87
2022/01/29 13:16:18;;;;;;;536.45;180.38;;;;;;;;;;6194169;23;20039;-89
2022/01/29 13:18:44;;;;;;;148.02;48.13;;;;;;;;;;6195187;23;19997;-88
2022/01/29 13:21:11;;;;;;;169.65;56.50;;;;;;;;;;6221368;23;20011;-88
2022/01/29 13:23:38;;;;;;;62.55;21.85;;;;;;;;;;6194760;23;20259;-88
2022/01/29 13:26:20;;;;;;;15.07;7.90;;;;;;;;;;6221220;23;20000;-88
2022/01/29 13:28:48;;;;;;;110.40;36.67;;;;;;;;;;6221157;23;20356;-88
2022/01/29 13:31:15;;;;;;;20.83;9.13;;;;;;;;;;6194961;23;20394;-87
2022/01/29 13:33:44;;;;;;;20.05;7.82;;;;;;;;;;6220977;23;19997;-87
2022/01/29 13:36:10;;;;;;;15.18;6.82;;;;;;;;;;6221364;23;20005;-88
2022/01/29 13:38:40;;;;;;;23.10;11.77;;;;;;;;;;6194762;23;20434;-88
2022/01/29 13:41:06;;;;;;;31.63;17.08;;;;;;;;;;6220944;23;20001;-88
2022/01/29 13:43:35;;;;;;;23.00;9.90;;;;;;;;;;6221363;23;20268;-88
2022/01/29 13:46:01;;;;;;;21.30;10.27;;;;;;;;;;6221004;23;20031;-88
2022/01/29 13:48:40;;;;;;;26.25;11.13;;;;;;;;;;6221426;23;20001;-89
2022/01/29 13:51:06;;;;;;;33.45;13.60;;;;;;;;;;6194593;23;20005;-90
2022/01/29 13:53:38;;;;;;;56.67;24.63;;;;;;;;;;6220822;23;20402;-91
2022/01/29 13:56:12;;;;;;;65.57;28.35;;;;;;;;;;6221412;23;20028;-88
2022/01/29 13:58:55;;;;;;;32.50;16.73;;;;;;;;;;6195895;23;20001;-89
2022/01/29 14:01:41;;;;;;;80.18;28.55;;;;;;;;;;6196760;23;20035;-87
2022/01/29 14:04:12;;;;;;;87.63;33.20;;;;;;;;;;6222918;23;20011;-87
2022/01/29 14:09:45;;;;;;;66.78;28.20;;;;;;;;;;6220465;23;20047;-88
2022/01/29 14:12:17;;;;;;;229.80;83.90;;;;;;;;;;6223211;23;20007;-88
2022/01/29 14:14:44;;;;;;;70.63;28.83;;;;;;;;;;6222517;23;20000;-87
2022/01/29 14:17:11;;;;;;;105.43;37.30;;;;;;;;;;6222830;23;20004;-88
2022/01/29 14:19:38;;;;;;;68.57;27.67;;;;;;;;;;6196382;23;20005;-88
2022/01/29 14:22:07;;;;;;;47.00;21.05;;;;;;;;;;6223043;23;20005;-88
2022/01/29 14:24:33;;;;;;;41.97;20.45;;;;;;;;;;6223097;23;20030;-89
2022/01/29 14:26:59;;;;;;;32.03;16.25;;;;;;;;;;6196587;23;19997;-88
2022/01/29 14:29:26;;;;;;;23.65;12.55;;;;;;;;;;6223038;23;20008;-88
2022/01/29 14:31:52;;;;;;;15.80;9.20;;;;;;;;;;6222632;23;20004;-88
2022/01/29 14:34:18;;;;;;;128.20;42.20;;;;;;;;;;6223036;23;19996;-88
2022/01/29 14:36:44;;;;;;;90.90;36.35;;;;;;;;;;6222355;23;20005;-88
2022/01/29 14:39:10;;;;;;;50.65;24.05;;;;;;;;;;6222490;23;20443;-88
2022/01/29 14:41:37;;;;;;;36.33;19.55;;;;;;;;;;6222572;23;20079;-88
2022/01/29 14:44:03;;;;;;;32.15;14.50;;;;;;;;;;6196195;23;20357;-88
2022/01/29 14:46:29;;;;;;;29.40;14.65;;;;;;;;;;6222941;23;20000;-88
2022/01/29 14:48:57;;;;;;;48.85;20.88;;;;;;;;;;6222926;23;20012;-88
2022/01/29 14:51:23;;;;;;;41.00;17.02;;;;;;;;;;6222082;23;20004;-88
2022/01/29 14:53:50;;;;;;;33.78;14.15;;;;;;;;;;6195860;23;20051;-86
2022/01/29 14:56:16;;;;;;;39.22;17.80;;;;;;;;;;6196219;23;20001;-94
2022/01/29 14:58:42;;;;;;;38.08;15.57;;;;;;;;;;6222802;23;20064;-88
2022/01/29 15:01:08;;;;;;;38.05;15.65;;;;;;;;;;6196483;23;20013;-87
2022/01/29 15:03:34;;;;;;;42.05;21.10;;;;;;;;;;6222256;23;20013;-88
2022/01/29 15:06:00;;;;;;;61.75;28.70;;;;;;;;;;6222607;23;20293;-88
2022/01/29 15:08:26;;;;;;;75.15;34.83;;;;;;;;;;6196913;23;20008;-89
2022/01/29 15:10:52;;;;;;;71.95;38.67;;;;;;;;;;6222121;23;20083;-87
2022/01/29 15:13:19;;;;;;;107.20;49.45;;;;;;;;;;6221904;23;19997;-88
2022/01/29 15:15:45;;;;;;;343.35;124.82;;;;;;;;;;6221894;23;20000;-87
2022/01/29 15:18:11;;;;;;;306.13;115.55;;;;;;;;;;6222529;23;20340;-86